sensor_id;sensor_type;location;lat;lon;timestamp;P1;durP1;ratioP1;P2;durP2;ratioP2
12373;SDS011;6251;51.762;8.660;2023-02-13T00:06:45;20.00;;;9.88;;
12373;SDS011;6251;51.762;8.660;2023-02-13T02:09:42;24.30;;;11.77;;
12373;SDS011;6251;51.762;8.660;2023-02-13T03:51:22;17.40;;;8.48;;
12373;SDS011;6251;51.762;8.660;2023-02-13T05:03:51;9.25;;;5.37;;
12373;SDS011;6251;51.762;8.660;2023-02-13T05:13:52;8.85;;;5.53;;
12373;SDS011;6251;51.762;8.660;2023-02-13T05:23:52;7.28;;;4.65;;
12373;SDS011;6251;51.762;8.660;2023-02-13T05:33:53;12.10;;;5.62;;
12373;SDS011;6251;51.762;8.660;2023-02-13T05:43:54;9.27;;;4.90;;
12373;SDS011;6251;51.762;8.660;2023-02-13T05:53:54;11.32;;;6.62;;
12373;SDS011;6251;51.762;8.660;2023-02-13T06:03:55;17.85;;;7.93;;
12373;SDS011;6251;51.762;8.660;2023-02-13T06:13:55;8.32;;;4.90;;
12373;SDS011;6251;51.762;8.660;2023-02-13T06:23:56;8.50;;;4.80;;
12373;SDS011;6251;51.762;8.660;2023-02-13T06:33:57;9.52;;;5.62;;
12373;SDS011;6251;51.762;8.660;2023-02-13T06:43:57;5.93;;;4.07;;
12373;SDS011;6251;51.762;8.660;2023-02-13T06:53:58;5.90;;;3.90;;
12373;SDS011;6251;51.762;8.660;2023-02-13T07:03:58;5.55;;;3.95;;
12373;SDS011;6251;51.762;8.660;2023-02-13T07:13:59;8.60;;;4.15;;
12373;SDS011;6251;51.762;8.660;2023-02-13T07:23:59;5.30;;;4.05;;
12373;SDS011;6251;51.762;8.660;2023-02-13T07:34:00;6.57;;;4.28;;
12373;SDS011;6251;51.762;8.660;2023-02-13T07:44:01;6.53;;;4.60;;
12373;SDS011;6251;51.762;8.660;2023-02-13T07:54:02;8.13;;;5.37;;
12373;SDS011;6251;51.762;8.660;2023-02-13T08:04:02;6.85;;;4.75;;
12373;SDS011;6251;51.762;8.660;2023-02-13T08:14:03;9.23;;;5.37;;
12373;SDS011;6251;51.762;8.660;2023-02-13T08:24:04;8.90;;;5.40;;
12373;SDS011;6251;51.762;8.660;2023-02-13T08:34:04;9.02;;;5.62;;
12373;SDS011;6251;51.762;8.660;2023-02-13T08:44:05;7.90;;;5.85;;
12373;SDS011;6251;51.762;8.660;2023-02-13T08:54:05;11.30;;;6.93;;
12373;SDS011;6251;51.762;8.660;2023-02-13T09:04:06;11.10;;;6.60;;
12373;SDS011;6251;51.762;8.660;2023-02-13T09:14:07;7.85;;;5.30;;
12373;SDS011;6251;51.762;8.660;2023-02-13T09:24:08;8.80;;;5.75;;
12373;SDS011;6251;51.762;8.660;2023-02-13T09:34:09;8.50;;;5.57;;
12373;SDS011;6251;51.762;8.660;2023-02-13T09:44:20;9.13;;;5.62;;
12373;SDS011;6251;51.762;8.660;2023-02-13T09:54:46;10.65;;;5.85;;
12373;SDS011;6251;51.762;8.660;2023-02-13T10:15:25;8.10;;;5.35;;
12373;SDS011;6251;51.762;8.660;2023-02-13T10:25:57;7.37;;;5.47;;
12373;SDS011;6251;51.762;8.660;2023-02-13T10:46:15;7.60;;;5.18;;
12373;SDS011;6251;51.762;8.660;2023-02-13T10:56:25;6.28;;;4.40;;
12373;SDS011;6251;51.762;8.660;2023-02-13T11:06:27;4.47;;;4.03;;
12373;SDS011;6251;51.762;8.660;2023-02-13T11:16:30;4.90;;;4.40;;
12373;SDS011;6251;51.762;8.660;2023-02-13T11:26:42;5.87;;;4.70;;
12373;SDS011;6251;51.762;8.660;2023-02-13T11:36:42;5.03;;;4.53;;
12373;SDS011;6251;51.762;8.660;2023-02-13T11:46:45;5.78;;;4.87;;
12373;SDS011;6251;51.762;8.660;2023-02-13T11:56:48;4.95;;;4.05;;
12373;SDS011;6251;51.762;8.660;2023-02-13T12:07:01;4.95;;;4.32;;
12373;SDS011;6251;51.762;8.660;2023-02-13T12:17:18;6.35;;;4.57;;
12373;SDS011;6251;51.762;8.660;2023-02-13T12:38:02;5.28;;;4.43;;
12373;SDS011;6251;51.762;8.660;2023-02-13T13:19:34;5.78;;;4.93;;
12373;SDS011;6251;51.762;8.660;2023-02-13T13:50:34;8.50;;;6.00;;
12373;SDS011;6251;51.762;8.660;2023-02-13T14:00:37;5.22;;;4.47;;
12373;SDS011;6251;51.762;8.660;2023-02-13T14:30:52;5.60;;;4.57;;
12373;SDS011;6251;51.762;8.660;2023-02-13T14:41:24;5.22;;;4.25;;
12373;SDS011;6251;51.762;8.660;2023-02-13T14:51:44;6.87;;;5.43;;
12373;SDS011;6251;51.762;8.660;2023-02-13T15:13:02;5.22;;;4.72;;
12373;SDS011;6251;51.762;8.660;2023-02-13T15:23:05;7.07;;;5.45;;
12373;SDS011;6251;51.762;8.660;2023-02-13T15:33:16;8.05;;;5.97;;
12373;SDS011;6251;51.762;8.660;2023-02-13T15:43:25;6.85;;;5.50;;
12373;SDS011;6251;51.762;8.660;2023-02-13T15:53:34;7.62;;;5.57;;
12373;SDS011;6251;51.762;8.660;2023-02-13T16:03:35;10.35;;;7.07;;
12373;SDS011;6251;51.762;8.660;2023-02-13T16:13:36;9.15;;;6.75;;
12373;SDS011;6251;51.762;8.660;2023-02-13T16:23:37;7.90;;;6.22;;
12373;SDS011;6251;51.762;8.660;2023-02-13T16:33:38;7.53;;;5.97;;
12373;SDS011;6251;51.762;8.660;2023-02-13T16:53:44;10.15;;;7.07;;
12373;SDS011;6251;51.762;8.660;2023-02-13T17:03:44;10.95;;;7.12;;
12373;SDS011;6251;51.762;8.660;2023-02-13T17:13:46;12.60;;;9.32;;
12373;SDS011;6251;51.762;8.660;2023-02-13T17:23:46;13.60;;;8.48;;
12373;SDS011;6251;51.762;8.660;2023-02-13T17:33:47;12.00;;;8.55;;
12373;SDS011;6251;51.762;8.660;2023-02-13T17:43:48;13.82;;;9.43;;
12373;SDS011;6251;51.762;8.660;2023-02-13T17:53:53;12.27;;;8.88;;
12373;SDS011;6251;51.762;8.660;2023-02-13T18:03:55;13.20;;;9.20;;
12373;SDS011;6251;51.762;8.660;2023-02-13T18:13:55;13.77;;;9.27;;
12373;SDS011;6251;51.762;8.660;2023-02-13T18:23:56;15.20;;;9.52;;
12373;SDS011;6251;51.762;8.660;2023-02-13T18:33:57;13.35;;;9.43;;
12373;SDS011;6251;51.762;8.660;2023-02-13T18:43:57;12.02;;;8.73;;
12373;SDS011;6251;51.762;8.660;2023-02-13T18:53:58;12.77;;;9.07;;
12373;SDS011;6251;51.762;8.660;2023-02-13T19:03:59;18.37;;;10.88;;
12373;SDS011;6251;51.762;8.660;2023-02-13T19:14:00;16.00;;;10.32;;
12373;SDS011;6251;51.762;8.660;2023-02-13T19:24:02;21.00;;;12.20;;
12373;SDS011;6251;51.762;8.660;2023-02-13T19:34:04;20.48;;;12.60;;
12373;SDS011;6251;51.762;8.660;2023-02-13T19:44:04;21.10;;;13.55;;
12373;SDS011;6251;51.762;8.660;2023-02-13T19:54:07;19.67;;;12.00;;
12373;SDS011;6251;51.762;8.660;2023-02-13T20:04:10;17.40;;;10.67;;
12373;SDS011;6251;51.762;8.660;2023-02-13T20:14:11;20.40;;;14.63;;
12373;SDS011;6251;51.762;8.660;2023-02-13T20:24:13;19.63;;;12.17;;
12373;SDS011;6251;51.762;8.660;2023-02-13T20:34:14;17.67;;;11.00;;
12373;SDS011;6251;51.762;8.660;2023-02-13T20:44:15;17.70;;;11.23;;
12373;SDS011;6251;51.762;8.660;2023-02-13T20:54:19;19.57;;;11.90;;
12373;SDS011;6251;51.762;8.660;2023-02-13T21:04:19;17.37;;;11.27;;
12373;SDS011;6251;51.762;8.660;2023-02-13T21:14:20;19.83;;;12.20;;
12373;SDS011;6251;51.762;8.660;2023-02-13T21:24:21;14.33;;;10.60;;
12373;SDS011;6251;51.762;8.660;2023-02-13T21:34:22;21.57;;;12.10;;
12373;SDS011;6251;51.762;8.660;2023-02-13T21:44:22;17.70;;;11.83;;
12373;SDS011;6251;51.762;8.660;2023-02-13T21:54:23;17.37;;;10.77;;
